createdAt,value
2018-09-10T00:00:23.700Z,93.84
2018-09-10T00:01:23.737Z,94.02
2018-09-10T00:02:23.715Z,93.65
2018-09-10T00:03:23.721Z,93.26
2018-09-10T00:04:23.712Z,93.16
2018-09-10T00:05:23.732Z,93.21
2018-09-10T00:06:23.724Z,93.69
2018-09-10T00:07:23.862Z,93.4
2018-09-10T00:08:23.843Z,93.69
2018-09-10T00:09:23.868Z,93.69
2018-09-10T00:10:23.697Z,93.4
2018-09-10T00:11:23.770Z,93.5
2018-09-10T00:12:23.712Z,93.4
2018-09-10T00:13:23.719Z,93.74
2018-09-10T00:14:23.758Z,93.93
2018-09-10T00:15:23.739Z,93.55
2018-09-10T00:16:23.708Z,93.65
2018-09-10T00:17:23.756Z,93.45
2018-09-10T00:18:23.719Z,93.84
2018-09-10T00:19:23.740Z,93.6
2018-09-10T00:20:23.735Z,93.5
2018-09-10T00:21:23.814Z,93.79
2018-09-10T00:22:23.749Z,93.98
2018-09-10T00:23:23.758Z,93.65
2018-09-10T00:24:23.739Z,94.02
2018-09-10T00:25:23.733Z,93.74
2018-09-10T00:26:23.740Z,94.31
2018-09-10T00:27:23.745Z,94.22
2018-09-10T00:28:58.531Z,93.93
2018-09-10T00:29:23.819Z,94.89
2018-09-10T00:30:23.771Z,94.41
2018-09-10T00:31:23.775Z,95.07
2018-09-10T00:32:23.893Z,94.98
2018-09-10T00:33:23.760Z,94.89
2018-09-10T00:34:23.784Z,94.89
2018-09-10T00:35:23.792Z,95.07
2018-09-10T00:36:23.764Z,94.89
2018-09-10T00:37:23.810Z,94.7
2018-09-10T00:38:23.759Z,94.7
2018-09-10T00:39:23.757Z,94.51
2018-09-10T00:40:23.797Z,94.98
2018-09-10T00:41:23.796Z,95.27
2018-09-10T00:42:23.943Z,95.46
2018-09-10T00:43:23.787Z,95.27
2018-09-10T00:44:23.785Z,95.75
2018-09-10T00:45:23.800Z,95.17
2018-09-10T00:46:23.759Z,95.07
2018-09-10T00:47:23.840Z,95.46
2018-09-10T00:48:23.818Z,95.56
2018-09-10T00:49:23.790Z,95.46
2018-09-10T00:50:23.789Z,95.27
2018-09-10T00:51:23.827Z,95.27
2018-09-10T00:52:23.772Z,95.56
2018-09-10T00:53:23.813Z,95.36
2018-09-10T00:54:23.936Z,95.36
2018-09-10T00:55:23.819Z,95.27
2018-09-10T00:56:23.840Z,95.75
2018-09-10T00:57:23.808Z,96.17
2018-09-10T00:58:23.954Z,96.56
2018-09-10T00:59:23.845Z,96.56
2018-09-10T01:00:23.796Z,96.75
2018-09-10T01:01:23.867Z,96.84
2018-09-10T01:02:23.834Z,96.56
2018-09-10T01:03:23.825Z,96.17
2018-09-10T01:04:23.824Z,96.66
2018-09-10T01:05:23.826Z,96.94
2018-09-10T01:06:23.827Z,97.27
2018-09-10T01:07:23.833Z,97.56
2018-09-10T01:08:23.842Z,97.27
2018-09-10T01:09:23.841Z,97.18
2018-09-10T01:10:23.850Z,96.98
2018-09-10T01:11:23.833Z,97.18
2018-09-10T01:12:23.802Z,96.8
2018-09-10T01:13:23.810Z,96.8
2018-09-10T01:14:23.848Z,96.75
2018-09-10T01:15:23.882Z,96.7
2018-09-10T01:16:24.030Z,97.08
2018-09-10T01:17:23.849Z,96.27
2018-09-10T01:18:23.832Z,96.8
2018-09-10T01:19:23.822Z,96.56
2018-09-10T01:20:23.858Z,96.75
2018-09-10T01:21:23.864Z,96.84
2018-09-10T01:22:23.832Z,96.08
2018-09-10T01:23:23.845Z,96.27
2018-09-10T01:24:23.876Z,96.37
2018-09-10T01:25:23.884Z,96.7
2018-09-10T01:26:23.900Z,96.7
2018-09-10T01:27:23.988Z,96.56
2018-09-10T01:28:23.847Z,96.66
2018-09-10T01:29:23.845Z,96.98
2018-09-10T01:30:23.865Z,97.37
2018-09-10T01:31:23.925Z,97.85
2018-09-10T01:32:23.903Z,97.18
2018-09-10T01:33:23.869Z,97.85
2018-09-10T01:34:23.885Z,97.75
2018-09-10T01:35:23.856Z,97.75
2018-09-10T01:36:23.904Z,97.75
2018-09-10T01:37:23.896Z,97.37
2018-09-10T01:38:23.910Z,97.08
2018-09-10T01:39:23.845Z,96.98
2018-09-10T01:40:23.883Z,97.47
2018-09-10T01:41:23.850Z,97.08
2018-09-10T01:42:23.908Z,96.8
2018-09-10T01:43:23.864Z,96.98
2018-09-10T01:44:24.036Z,96.8
2018-09-10T01:45:23.888Z,96.8
2018-09-10T01:46:23.885Z,97.27
2018-09-10T01:47:23.883Z,96.8
2018-09-10T01:48:23.927Z,96.89
2018-09-10T01:49:23.910Z,97.27
2018-09-10T01:50:23.883Z,96.98
2018-09-10T01:51:23.923Z,96.98
2018-09-10T01:52:23.995Z,96.98
2018-09-10T01:53:23.911Z,96.8
2018-09-10T01:54:23.916Z,97.08
2018-09-10T01:55:23.917Z,96.98
2018-09-10T01:56:23.914Z,97.94
2018-09-10T01:57:23.899Z,97.75
2018-09-10T01:58:24.062Z,97.56
2018-09-10T01:59:24.055Z,97.75
2018-09-10T02:00:23.958Z,97.66
2018-09-10T02:01:23.920Z,97.56
2018-09-10T02:02:23.894Z,97.56
2018-09-10T02:03:23.887Z,97.47
2018-09-10T02:04:23.891Z,97.66
2018-09-10T02:05:23.906Z,97.94
2018-09-10T02:06:23.908Z,97.66
2018-09-10T02:07:23.949Z,97.75
2018-09-10T02:08:23.922Z,97.75
2018-09-10T02:09:23.932Z,97.75
2018-09-10T02:10:23.939Z,98.03
2018-09-10T02:11:23.910Z,97.56
2018-09-10T02:12:23.922Z,97.66
2018-09-10T02:13:23.926Z,97.85
2018-09-10T02:14:23.941Z,97.85
2018-09-10T02:15:23.936Z,97.47
2018-09-10T02:16:23.948Z,97.18
2018-09-10T02:17:25.131Z,97.75
2018-09-10T02:18:24.005Z,97.75
2018-09-10T02:19:23.970Z,97.66
2018-09-10T02:20:24.032Z,97.66
2018-09-10T02:21:23.942Z,97.85
2018-09-10T02:22:23.912Z,97.75
2018-09-10T02:23:23.955Z,98.13
2018-09-10T02:24:23.937Z,97.85
2018-09-10T02:25:23.929Z,97.47
2018-09-10T02:26:23.957Z,97.75
2018-09-10T02:27:24.107Z,97.56
2018-09-10T02:28:23.984Z,97.94
2018-09-10T02:29:23.971Z,97.85
2018-09-10T02:30:23.972Z,97.94
2018-09-10T02:31:23.935Z,97.66
2018-09-10T02:32:23.955Z,97.75
2018-09-10T02:33:23.961Z,97.94
2018-09-10T02:34:23.959Z,97.94
2018-09-10T02:35:23.970Z,97.66
2018-09-10T02:36:23.978Z,97.47
2018-09-10T02:37:23.952Z,98.32
2018-09-10T02:38:24.050Z,98.03
2018-09-10T02:39:23.972Z,98.99
2018-09-10T02:40:23.993Z,98.71
2018-09-10T02:41:23.953Z,98.61
2018-09-10T02:42:23.993Z,98.99
2018-09-10T02:43:23.987Z,99.28
2018-09-10T02:44:23.959Z,98.8
2018-09-10T02:45:23.962Z,98.8
2018-09-10T02:46:24.001Z,98.66
2018-09-10T02:47:23.987Z,98.66
2018-09-10T02:48:23.983Z,98.66
2018-09-10T02:49:24.020Z,97.99
2018-09-10T02:50:23.995Z,98.13
2018-09-10T02:51:24.012Z,98.03
2018-09-10T02:52:23.983Z,97.99
2018-09-10T02:53:24.012Z,98.71
2018-09-10T02:54:24.016Z,98.56
2018-09-10T02:55:24.002Z,98.47
2018-09-10T02:56:24.022Z,98.75
2018-09-10T02:57:24.012Z,98.75
2018-09-10T02:58:24.032Z,98.85
2018-09-10T02:59:24.029Z,98.94
2018-09-10T03:00:24.027Z,99.52
2018-09-10T03:01:24.041Z,99.04
2018-09-10T03:02:24.015Z,98.66
2018-09-10T03:03:24.021Z,98.75
2018-09-10T03:04:23.992Z,98.85
2018-09-10T03:05:24.065Z,99.23
2018-09-10T03:06:24.044Z,98.94
2018-09-10T03:07:24.025Z,99.23
2018-09-10T03:08:24.019Z,99.04
2018-09-10T03:09:24.060Z,98.56
2018-09-10T03:10:24.064Z,99.42
2018-09-10T03:11:23.996Z,99.13
2018-09-10T03:12:24.038Z,99.52
2018-09-10T03:13:24.162Z,99.61
2018-09-10T03:14:24.070Z,99.61
2018-09-10T03:15:24.060Z,99.27
2018-09-10T03:16:24.042Z,99.99
2018-09-10T03:17:24.033Z,99.99
2018-09-10T03:18:24.017Z,99.99
2018-09-10T03:19:24.030Z,99.99
2018-09-10T03:20:24.600Z,99.9
2018-09-10T03:21:24.211Z,99.56
2018-09-10T03:22:24.219Z,99.61
2018-09-10T03:23:24.053Z,99.61
2018-09-10T03:24:24.061Z,99.61
2018-09-10T03:25:24.071Z,99.71
2018-09-10T03:26:24.058Z,99.99
2018-09-10T03:27:24.036Z,99.52
2018-09-10T03:28:24.052Z,99.71
2018-09-10T03:29:24.057Z,99.9
2018-09-10T03:30:24.060Z,99.8
2018-09-10T03:31:24.072Z,99.9
2018-09-10T03:32:24.078Z,99.99
2018-09-10T03:33:24.059Z,99.99
2018-09-10T03:34:24.144Z,99.61
2018-09-10T03:35:24.081Z,99.52
2018-09-10T03:36:24.205Z,99.32
2018-09-10T03:37:24.214Z,99.18
2018-09-10T03:38:24.205Z,99.32
2018-09-10T03:39:24.074Z,99.71
2018-09-10T03:40:24.058Z,99.61
2018-09-10T03:41:24.086Z,99.71
2018-09-10T03:42:24.102Z,99.75
2018-09-10T03:43:24.077Z,99.9
2018-09-10T03:44:24.104Z,99.8
2018-09-10T03:45:24.040Z,99.9
2018-09-10T03:46:24.246Z,99.52
2018-09-10T03:47:24.355Z,99.75
2018-09-10T03:48:24.060Z,99.99
2018-09-10T03:49:24.278Z,99.99
2018-09-10T03:50:24.568Z,99.95
2018-09-10T03:51:24.229Z,99.99
2018-09-10T03:52:24.298Z,99.99
2018-09-10T03:53:24.254Z,99.99
2018-09-10T03:54:24.180Z,99.99
2018-09-10T03:55:24.118Z,99.95
2018-09-10T03:56:24.118Z,99.99
2018-09-10T03:57:24.097Z,99.95
2018-09-10T03:58:24.072Z,99.8
2018-09-10T03:59:24.119Z,99.99
2018-09-10T04:00:24.145Z,99.99
2018-09-10T04:01:24.132Z,99.99
2018-09-10T04:02:24.124Z,99.99
2018-09-10T04:03:24.138Z,99.99
2018-09-10T04:04:24.112Z,99.99
2018-09-10T04:05:24.088Z,99.99
2018-09-10T04:06:24.110Z,99.99
2018-09-10T04:07:24.112Z,99.99
2018-09-10T04:08:24.135Z,99.99
2018-09-10T04:09:24.147Z,99.99
2018-09-10T04:10:24.143Z,99.99
2018-09-10T04:21:20.105Z,99.99
2018-09-10T04:22:20.065Z,99.99
2018-09-10T04:23:20.140Z,99.99
2018-09-10T04:24:20.085Z,99.99
2018-09-10T04:25:20.124Z,99.99
2018-09-10T04:26:27.301Z,99.99
2018-09-10T04:27:20.301Z,99.99
2018-09-10T04:28:20.178Z,99.99
2018-09-10T04:29:20.106Z,99.99
2018-09-10T04:30:20.112Z,99.99
2018-09-10T04:31:20.097Z,99.99
2018-09-10T04:32:20.122Z,99.99
2018-09-10T04:33:20.099Z,99.99
2018-09-10T04:34:20.136Z,99.99
2018-09-10T04:35:20.112Z,99.99
2018-09-10T04:36:20.294Z,99.99
2018-09-10T04:37:20.123Z,99.99
2018-09-10T04:38:20.124Z,99.99
2018-09-10T04:39:20.167Z,99.99
2018-09-10T04:40:20.112Z,99.99
2018-09-10T04:41:20.134Z,99.99
2018-09-10T04:42:20.231Z,99.99
2018-09-10T04:43:20.095Z,99.99
2018-09-10T04:44:20.107Z,99.99
2018-09-10T04:45:20.161Z,99.99
2018-09-10T04:46:20.116Z,99.99
2018-09-10T04:47:20.293Z,99.99
2018-09-10T04:48:20.120Z,99.99
2018-09-10T04:49:20.161Z,99.99
2018-09-10T04:50:20.146Z,99.99
2018-09-10T04:51:20.143Z,99.99
2018-09-10T04:52:20.316Z,99.99
2018-09-10T04:53:20.267Z,99.99
2018-09-10T04:54:20.227Z,99.99
2018-09-10T04:55:20.132Z,99.99
2018-09-10T04:56:20.160Z,99.99
2018-09-10T04:57:20.112Z,99.99
2018-09-10T04:58:20.206Z,99.99
2018-09-10T04:59:20.210Z,99.99
2018-09-10T05:00:20.164Z,99.99
2018-09-10T05:01:20.191Z,99.99
2018-09-10T05:02:20.258Z,99.99
2018-09-10T05:03:20.190Z,99.99
2018-09-10T05:04:20.221Z,99.99
2018-09-10T05:05:20.133Z,99.99
2018-09-10T05:06:20.147Z,99.99
2018-09-10T05:07:20.151Z,99.99
2018-09-10T05:08:20.156Z,99.99
2018-09-10T05:09:20.173Z,99.99
2018-09-10T05:10:20.195Z,99.99
2018-09-10T05:17:48.041Z,99.99
2018-09-10T05:18:00.403Z,99.99
2018-09-10T05:19:00.521Z,99.99
2018-09-10T05:20:00.447Z,99.99
2018-09-10T05:21:00.406Z,99.99
2018-09-10T05:22:00.504Z,99.99
2018-09-10T05:23:00.372Z,99.99
2018-09-10T05:24:00.386Z,99.99
2018-09-10T05:25:00.400Z,99.99
2018-09-10T05:26:00.372Z,99.99
2018-09-10T05:27:00.443Z,99.99
2018-09-10T05:28:00.401Z,99.99
2018-09-10T05:29:00.392Z,99.99
2018-09-10T05:30:00.413Z,99.99
2018-09-10T05:31:00.404Z,99.99
2018-09-10T05:32:00.377Z,99.99
2018-09-10T05:33:00.940Z,99.99
2018-09-10T05:34:00.471Z,99.99
2018-09-10T05:35:01.605Z,99.99
2018-09-10T05:36:00.451Z,99.99
2018-09-10T05:37:00.527Z,99.99
2018-09-10T05:38:00.386Z,99.99
2018-09-10T05:39:00.468Z,99.99
2018-09-10T05:40:00.572Z,99.99
2018-09-10T05:41:00.401Z,99.99
2018-09-10T05:42:00.422Z,99.99
2018-09-10T05:43:00.386Z,99.99
2018-09-10T05:44:00.429Z,99.99
2018-09-10T05:45:00.506Z,99.99
2018-09-10T05:46:00.429Z,99.99
2018-09-10T05:47:00.711Z,99.99
2018-09-10T05:48:00.395Z,99.99
2018-09-10T05:49:00.451Z,99.99
2018-09-10T05:50:00.425Z,99.99
2018-09-10T05:51:00.394Z,99.99
2018-09-10T05:52:00.457Z,99.99
2018-09-10T05:53:00.412Z,99.99
2018-09-10T05:54:00.386Z,99.99
2018-09-10T05:55:00.439Z,99.99
2018-09-10T05:56:00.430Z,99.99
2018-09-10T05:57:00.416Z,99.99
2018-09-10T05:58:00.448Z,99.99
2018-09-10T05:59:00.418Z,99.99
2018-09-10T06:00:02.394Z,99.99
2018-09-10T06:01:00.426Z,99.99
2018-09-10T06:02:00.433Z,99.99
2018-09-10T06:03:00.415Z,99.99
2018-09-10T06:04:00.419Z,99.99
2018-09-10T06:05:00.819Z,99.99
2018-09-10T06:06:00.709Z,99.99
2018-09-10T06:07:00.551Z,99.99
2018-09-10T06:08:00.437Z,99.99
2018-09-10T06:09:00.429Z,99.99
2018-09-10T06:10:00.412Z,99.99
2018-09-10T06:11:00.831Z,99.99
2018-09-10T06:12:00.441Z,99.99
2018-09-10T06:13:00.446Z,99.99
2018-09-10T06:14:00.466Z,99.57
2018-09-10T06:15:00.449Z,99.28
2018-09-10T06:16:00.643Z,99.47
2018-09-10T06:17:00.593Z,98.99
2018-09-10T06:18:00.448Z,98.66
2018-09-10T06:19:00.473Z,98.94
2018-09-10T06:20:00.460Z,98.75
2018-09-10T06:21:00.454Z,97.8
2018-09-10T06:22:00.472Z,97.32
2018-09-10T06:23:00.432Z,96.8
2018-09-10T06:25:05.026Z,96.37
2018-09-10T06:26:05.046Z,95.89
2018-09-10T06:27:05.067Z,95.22
2018-09-10T06:28:05.037Z,94.6
2018-09-10T06:29:05.066Z,94.7
2018-09-10T06:30:05.076Z,94.17
2018-09-10T06:31:05.068Z,92.3
2018-09-10T06:32:05.157Z,93.07
2018-09-10T06:33:05.046Z,91.58
2018-09-10T06:34:05.170Z,90.33
2018-09-10T06:35:05.312Z,91.19
2018-09-10T06:36:05.174Z,90.53
2018-09-10T06:37:05.178Z,90.23
2018-09-10T06:38:05.069Z,90.23
2018-09-10T06:39:05.221Z,89.66
2018-09-10T06:40:05.052Z,88.84
2018-09-10T06:41:05.074Z,88.37
2018-09-10T06:42:05.040Z,87.98
2018-09-10T06:43:05.073Z,87.7
2018-09-10T06:44:05.090Z,86.97
2018-09-10T06:45:05.052Z,87.16
2018-09-10T06:46:05.090Z,86.78
2018-09-10T06:47:05.063Z,85.96
2018-09-10T06:48:05.044Z,87.01
2018-09-10T06:49:05.113Z,87.01
2018-09-10T06:50:05.053Z,86.1
2018-09-10T06:51:05.122Z,85.33
2018-09-10T06:52:05.100Z,85.08
2018-09-10T06:53:05.081Z,84.89
2018-09-10T06:54:05.111Z,84.85
2018-09-10T06:55:05.124Z,84.85
2018-09-10T06:56:05.068Z,83.74
2018-09-10T06:57:05.069Z,82.73
2018-09-10T06:58:05.062Z,83.01
2018-09-10T06:59:05.195Z,82.82
2018-09-10T07:00:05.080Z,82.43
2018-09-10T07:01:05.070Z,81.61
2018-09-10T07:12:51.563Z,81.52
2018-09-10T07:13:04.094Z,79.03
2018-09-10T07:14:04.008Z,78.75
2018-09-10T07:15:04.020Z,79.13
2018-09-10T07:16:04.001Z,79.86
2018-09-10T07:17:03.993Z,79.58
2018-09-10T07:18:04.036Z,80.35
2018-09-10T07:19:04.092Z,79.77
2018-09-10T07:20:04.216Z,79.58
2018-09-10T07:21:04.031Z,78.65
2018-09-10T07:22:03.993Z,79.52
2018-09-10T07:23:04.020Z,79.23
2018-09-10T07:24:04.012Z,78.94
2018-09-10T07:25:04.064Z,78.88
2018-09-10T07:26:04.042Z,77.44
2018-09-10T07:27:03.998Z,76.42
2018-09-10T07:28:04.045Z,76.38
2018-09-10T07:29:04.036Z,76.42
2018-09-10T07:30:04.119Z,76.51
2018-09-10T07:31:04.085Z,77.28
2018-09-10T07:32:04.197Z,76.51
2018-09-10T07:33:04.038Z,76.71
2018-09-10T07:34:04.082Z,76.03
2018-09-10T07:40:42.172Z,75.45
2018-09-10T07:52:28.570Z,75.65
2018-09-10T07:52:40.969Z,73.79
2018-09-10T07:53:41.147Z,74.27
2018-09-10T07:54:41.140Z,73.31
2018-09-10T07:55:42.507Z,73.5
2018-09-10T07:56:40.965Z,73.11
2018-09-10T07:58:45.761Z,72.19
2018-09-10T07:59:47.127Z,71.32
2018-09-10T08:00:49.181Z,71.22
2018-09-10T08:01:40.973Z,70.64
2018-09-10T08:02:40.977Z,70.84
2018-09-10T08:03:40.958Z,70.64
2018-09-10T08:04:41.018Z,71.84
2018-09-10T08:05:52.189Z,70.68
2018-09-10T08:06:52.466Z,70.39
2018-09-10T08:07:51.590Z,70.23
2018-09-10T08:08:56.313Z,70.32
2018-09-10T08:09:50.112Z,69.36
2018-09-10T08:10:48.378Z,69.56
2018-09-10T08:11:46.877Z,69.46
2018-09-10T08:12:45.717Z,70.42
2018-09-10T08:13:45.788Z,70.26
2018-09-10T08:14:40.999Z,70.17
2018-09-10T08:23:38.249Z,67.62
2018-09-10T08:24:40.984Z,67.63
2018-09-10T08:25:34.073Z,66.95
2018-09-10T08:26:36.522Z,67.43
2018-09-10T08:27:35.750Z,68.53
2018-09-10T08:28:33.949Z,68.3
2018-09-10T08:29:34.029Z,68.24
2018-09-10T08:30:36.888Z,67.18
2018-09-10T08:31:34.103Z,65.95
2018-09-10T08:32:33.940Z,65.34
2018-09-10T08:33:34.095Z,64.69
2018-09-10T08:34:34.035Z,64.5
2018-09-10T08:35:34.234Z,64.59
2018-09-10T08:36:33.966Z,64.4
2018-09-10T08:37:35.856Z,64.89
2018-09-10T08:38:33.950Z,64.69
2018-09-10T08:39:34.274Z,64.34
2018-09-10T08:40:33.983Z,63.95
2018-09-10T08:41:33.990Z,63.75
2018-09-10T08:42:34.585Z,63.37
2018-09-10T08:43:34.292Z,63.88
2018-09-10T08:44:34.047Z,64.14
2018-09-10T08:45:33.989Z,63.95
2018-09-10T08:46:33.991Z,62.72
2018-09-10T08:47:33.980Z,62.75
2018-09-10T08:48:34.123Z,63.69
2018-09-10T08:49:33.981Z,63.13
2018-09-10T08:50:33.988Z,62.59
2018-09-10T08:51:34.004Z,62.98
2018-09-10T08:52:34.000Z,62.59
2018-09-10T08:53:33.987Z,63.13
2018-09-10T08:54:34.216Z,63.07
2018-09-10T08:55:34.159Z,63.36
2018-09-10T08:56:33.990Z,62.75
2018-09-10T08:57:34.060Z,62.78
2018-09-10T08:58:33.999Z,63.36
2018-09-10T08:59:34.051Z,62.65
2018-09-10T09:00:34.093Z,62.01
2018-09-10T09:01:34.136Z,62.59
2018-09-10T09:02:34.010Z,62.88
2018-09-10T09:03:34.043Z,62.19
2018-09-10T09:04:34.024Z,60.87
2018-09-10T09:05:34.023Z,59.8
2018-09-10T09:06:34.086Z,59.8
2018-09-10T09:07:33.998Z,59.9
2018-09-10T09:08:34.017Z,59.8
2018-09-10T09:09:34.576Z,60
2018-09-10T09:10:34.016Z,60.28
2018-09-10T09:12:53.594Z,61.61
2018-09-10T09:13:53.637Z,61.39
2018-09-10T09:18:22.875Z,60.23
2018-09-10T09:19:22.901Z,60.64
2018-09-10T09:20:22.879Z,60.58
2018-09-10T09:21:22.871Z,60.38
2018-09-10T09:22:23.218Z,59.51
2018-09-10T09:23:22.951Z,60.09
2018-09-10T09:24:22.914Z,60.28
2018-09-10T09:25:22.895Z,60
2018-09-10T09:26:22.850Z,59.8
2018-09-10T09:27:22.863Z,59.51
2018-09-10T09:28:22.901Z,59.34
2018-09-10T09:29:22.887Z,58.98
2018-09-10T09:30:23.047Z,59.67
2018-09-10T09:31:22.893Z,58.79
2018-09-10T09:32:22.890Z,58.01
2018-09-10T09:33:22.881Z,57.85
2018-09-10T09:34:22.919Z,57.82
2018-09-10T09:35:22.914Z,57.56
2018-09-10T09:36:23.008Z,56.68
2018-09-10T09:37:22.929Z,56.9
2018-09-10T09:38:22.912Z,56.81
2018-09-10T09:39:22.872Z,56.81
2018-09-10T09:40:23.515Z,56.59
2018-09-10T09:41:23.046Z,57
2018-09-10T09:42:23.053Z,56.51
2018-09-10T09:43:22.946Z,56.45
2018-09-10T09:44:22.946Z,55.27
2018-09-10T09:45:22.942Z,54.3
2018-09-10T09:46:23.529Z,54.4
2018-09-10T09:47:22.931Z,54.62
2018-09-10T09:48:22.930Z,55.27
2018-09-10T09:49:22.917Z,55.18
2018-09-10T09:50:22.946Z,54.6
2018-09-10T09:51:22.974Z,54.3
2018-09-10T09:52:23.236Z,53.75
2018-09-10T09:53:22.920Z,52.77
2018-09-10T09:54:22.949Z,53.85
2018-09-10T09:55:22.943Z,53.77
2018-09-10T09:56:22.949Z,52.7
2018-09-10T09:57:22.928Z,51.04
2018-09-10T09:58:22.962Z,50.75
2018-09-10T09:59:23.114Z,51.02
2018-09-10T10:00:22.985Z,52.09
2018-09-10T10:01:22.923Z,52.36
2018-09-10T10:02:22.948Z,52.58
2018-09-10T10:06:51.491Z,51.02
2018-09-10T10:07:51.495Z,50.26
2018-09-10T10:08:51.500Z,50.56
2018-09-10T10:09:51.546Z,51.41
2018-09-10T10:10:51.506Z,50.95
2018-09-10T10:11:51.651Z,50.16
2018-09-10T10:12:51.500Z,50.19
2018-09-10T10:13:51.506Z,49.8
2018-09-10T10:14:51.507Z,49.34
2018-09-10T10:15:51.543Z,50.21
2018-09-10T10:16:51.536Z,50.09
2018-09-10T10:17:51.509Z,50.31
2018-09-10T10:18:51.555Z,50.87
2018-09-10T10:19:51.542Z,50.29
2018-09-10T10:20:51.534Z,48.85
2018-09-10T10:21:51.523Z,47.97
2018-09-10T10:22:51.548Z,48.93
2018-09-10T10:23:51.527Z,48.73
2018-09-10T10:24:51.543Z,49.66
2018-09-10T10:25:51.537Z,50.07
2018-09-10T10:26:51.528Z,48.73
2018-09-10T10:27:51.541Z,48.07
2018-09-10T10:28:51.554Z,47.39
2018-09-10T10:29:52.153Z,47.39
2018-09-10T10:30:51.563Z,47.75
2018-09-10T10:31:51.538Z,47.39
2018-09-10T10:32:51.546Z,47.29
2018-09-10T10:33:51.519Z,48.24
2018-09-10T10:34:51.534Z,48.12
2018-09-10T10:35:51.529Z,47.83
2018-09-10T10:36:51.541Z,48.32
2018-09-10T10:37:51.576Z,47.36
2018-09-10T10:38:51.561Z,46.97
2018-09-10T10:39:51.728Z,46.78
2018-09-10T10:40:51.740Z,46.97
2018-09-10T10:41:51.546Z,46.66
2018-09-10T10:42:51.566Z,46.64
2018-09-10T10:43:51.579Z,46.83
2018-09-10T10:44:51.568Z,47.05
2018-09-10T10:45:51.577Z,46.93
2018-09-10T10:46:51.604Z,47.32
2018-09-10T10:47:51.571Z,47.71
2018-09-10T10:48:51.577Z,48.1
2018-09-10T10:49:51.591Z,48
2018-09-10T10:50:51.593Z,48.58
2018-09-10T10:51:51.609Z,48.1
2018-09-10T10:52:51.611Z,48.49
2018-09-10T10:53:51.666Z,48.95
2018-09-10T10:54:51.596Z,48.29
2018-09-10T10:55:51.594Z,48.68
2018-09-10T10:56:51.566Z,48.49
2018-09-10T10:57:51.755Z,48.19
2018-09-10T10:58:51.615Z,48.19
2018-09-10T10:59:51.581Z,48.19
2018-09-10T11:00:51.601Z,48.58
2018-09-10T11:01:51.581Z,48.36
2018-09-10T11:02:51.610Z,48.34
2018-09-10T11:03:51.619Z,48.27
2018-09-10T11:04:51.601Z,48.66
2018-09-10T11:05:51.604Z,48.56
2018-09-10T11:06:51.599Z,48.36
2018-09-10T11:07:51.637Z,48.27
2018-09-10T11:08:51.625Z,48.54
2018-09-10T11:09:51.623Z,48.34
2018-09-10T11:10:51.597Z,48.54
2018-09-10T11:11:51.634Z,48.73
2018-09-10T11:12:51.651Z,48.56
2018-09-10T11:13:51.630Z,48.07
2018-09-10T11:14:51.617Z,47.98
2018-09-10T11:15:51.659Z,47.78
2018-09-10T11:16:51.657Z,47.32
2018-09-10T11:17:51.745Z,47.03
2018-09-10T11:18:51.651Z,46.93
2018-09-10T11:19:51.796Z,46.83
2018-09-10T11:20:51.683Z,46.54
2018-09-10T11:21:51.634Z,46.86
2018-09-10T11:22:51.663Z,46.66
2018-09-10T11:23:51.657Z,46.17
2018-09-10T11:24:51.641Z,46.1
2018-09-10T11:25:51.664Z,46.59
2018-09-10T11:26:51.669Z,45.73
2018-09-10T11:27:51.740Z,45.64
2018-09-10T11:28:51.656Z,45.92
2018-09-10T11:29:51.639Z,46.02
2018-09-10T11:30:51.666Z,46.02
2018-09-10T11:31:51.671Z,46.9
2018-09-10T11:32:51.664Z,46.1
2018-09-10T11:33:51.708Z,46
2018-09-10T11:34:51.655Z,46
2018-09-10T11:35:51.682Z,46
2018-09-10T11:36:51.705Z,46.31
2018-09-10T11:37:51.663Z,46.12
2018-09-10T11:38:51.684Z,45.73
2018-09-10T11:39:51.713Z,46.22
2018-09-10T11:40:51.680Z,46.24
2018-09-10T11:41:51.686Z,45.75
2018-09-10T11:42:51.725Z,46.24
2018-09-10T11:43:51.671Z,45.68
2018-09-10T11:44:51.815Z,45.68
2018-09-10T11:45:51.720Z,45.29
2018-09-10T11:46:51.727Z,44.82
2018-09-10T11:47:51.968Z,43.95
2018-09-10T11:48:51.675Z,42.89
2018-09-10T11:49:51.730Z,42.48
2018-09-10T11:50:51.717Z,42.58
2018-09-10T11:51:51.713Z,43.16
2018-09-10T11:52:51.730Z,43.16
2018-09-10T11:53:51.698Z,43.43
2018-09-10T11:54:51.707Z,43.63
2018-09-10T11:55:51.721Z,43.24
2018-09-10T11:56:51.722Z,44.02
2018-09-10T11:57:51.732Z,43.71
2018-09-10T11:58:52.818Z,43.36
2018-09-10T11:59:52.666Z,43.33
2018-09-10T12:00:52.753Z,43.04
2018-09-10T12:01:54.201Z,42.87
2018-09-10T12:02:52.683Z,42.94
2018-09-10T12:03:52.733Z,43.36
2018-09-10T12:04:52.668Z,44.41
2018-09-10T12:05:52.804Z,43.53
2018-09-10T12:06:52.878Z,43.43
2018-09-10T12:07:52.877Z,43.16
2018-09-10T12:08:52.717Z,43.14
2018-09-10T12:09:52.775Z,43.36
2018-09-10T12:10:52.717Z,43.82
2018-09-10T12:11:52.659Z,43.92
2018-09-10T12:12:52.786Z,43.82
2018-09-10T12:13:51.954Z,43.46
2018-09-10T12:14:51.739Z,43.55
2018-09-10T12:15:51.718Z,43.55
2018-09-10T12:16:51.747Z,43.26
2018-09-10T12:17:51.735Z,42.94
2018-09-10T12:18:51.757Z,42.68
2018-09-10T12:19:51.739Z,42.77
2018-09-10T12:20:51.767Z,43.63
2018-09-10T12:21:51.719Z,43.16
2018-09-10T12:22:51.766Z,42.68
2018-09-10T12:23:51.809Z,42.87
2018-09-10T12:24:51.735Z,42.38
2018-09-10T12:25:51.739Z,42.38
2018-09-10T12:26:51.773Z,42.26
2018-09-10T12:27:51.821Z,42.58
2018-09-10T12:28:51.768Z,42.19
2018-09-10T12:29:51.747Z,42.38
2018-09-10T12:30:51.768Z,42.75
2018-09-10T12:31:51.788Z,43.12
2018-09-10T12:32:51.756Z,43.32
2018-09-10T12:33:51.785Z,43.71
2018-09-10T12:34:51.794Z,43.04
2018-09-10T12:35:51.775Z,43.02
2018-09-10T12:36:51.747Z,43.63
2018-09-10T12:37:51.758Z,43.9
2018-09-10T12:38:51.765Z,43.9
2018-09-10T12:39:51.877Z,43.61
2018-09-10T12:40:51.798Z,43.73
2018-09-10T12:41:51.803Z,43.53
2018-09-10T12:42:51.841Z,43.53
2018-09-10T12:43:51.800Z,43.24
2018-09-10T12:44:51.831Z,43.73
2018-09-10T12:45:51.767Z,43.12
2018-09-10T12:46:51.785Z,43.59
2018-09-10T12:47:51.840Z,43.8
2018-09-10T12:48:51.784Z,44.17
2018-09-10T12:49:51.786Z,44.56
2018-09-10T12:50:51.865Z,44.27
2018-09-10T12:51:51.795Z,43.98
2018-09-10T12:52:51.817Z,44.07
2018-09-10T12:53:51.808Z,44.66
2018-09-10T12:54:51.806Z,44.85
2018-09-10T12:55:51.825Z,44.34
2018-09-10T12:56:51.820Z,44.76
2018-09-10T12:57:51.807Z,44.87
2018-09-10T12:58:51.946Z,44.38
2018-09-10T12:59:51.860Z,44.29
2018-09-10T13:00:51.822Z,43.82
2018-09-10T13:01:51.842Z,43.82
2018-09-10T13:02:51.823Z,43.43
2018-09-10T13:03:51.854Z,43.63
2018-09-10T13:04:51.825Z,43.53
2018-09-10T13:05:51.822Z,43.43
2018-09-10T13:06:51.863Z,43.82
2018-09-10T13:07:51.869Z,43.92
2018-09-10T13:08:51.810Z,43.82
2018-09-10T13:09:51.853Z,43.92
2018-09-10T13:10:51.877Z,43.92
2018-09-10T13:11:51.900Z,43.85
2018-09-10T13:12:51.890Z,43.65
2018-09-10T13:13:51.850Z,43.55
2018-09-10T13:14:51.892Z,43.92
2018-09-10T13:15:51.840Z,43.36
2018-09-10T13:16:51.836Z,43.92
2018-09-10T13:17:51.835Z,43.46
2018-09-10T13:18:51.882Z,43.61
2018-09-10T13:19:51.848Z,43.8
2018-09-10T13:20:52.028Z,43.92
2018-09-10T13:21:51.874Z,44.19
2018-09-10T13:22:51.859Z,43.9
2018-09-10T13:23:51.837Z,44.58
2018-09-10T13:24:51.861Z,43.92
2018-09-10T13:25:51.920Z,44.21
2018-09-10T13:26:51.867Z,44.51
2018-09-10T13:27:51.874Z,44.43
2018-09-10T13:28:51.857Z,44.24
2018-09-10T13:29:52.087Z,44.04
2018-09-10T13:30:51.852Z,43.55
2018-09-10T13:31:51.899Z,43.65
2018-09-10T13:32:51.878Z,43.46
2018-09-10T13:33:51.883Z,43.53
2018-09-10T13:34:51.896Z,43.73
2018-09-10T13:35:51.870Z,43.82
2018-09-10T13:36:51.906Z,43.8
2018-09-10T13:37:51.900Z,44.02
2018-09-10T13:38:51.939Z,43.43
2018-09-10T13:39:51.921Z,43.46
2018-09-10T13:40:51.887Z,43.07
2018-09-10T13:41:51.931Z,43.18
2018-09-10T13:42:51.905Z,43.36
2018-09-10T13:43:51.884Z,43.96
2018-09-10T13:44:51.889Z,43.69
2018-09-10T13:45:51.891Z,43.3
2018-09-10T13:46:51.925Z,43.4
2018-09-10T13:47:51.907Z,43.2
2018-09-10T13:48:51.898Z,43.13
2018-09-10T13:49:51.881Z,42.54
2018-09-10T13:50:51.892Z,42.61
2018-09-10T13:51:51.928Z,42.81
2018-09-10T13:52:51.907Z,42.74
2018-09-10T13:53:51.908Z,42.83
2018-09-10T13:54:51.923Z,42.56